sensor_id;sensor_type;location;lat;lon;timestamp;pressure;altitude;pressure_sealevel;temperature;humidity
2711;BME280;20721;47.402;8.550;2023-06-26T00:00:34;96179;;;23.51;43.34
2711;BME280;20721;47.402;8.550;2023-06-26T00:01:34;96176;;;23.56;43.40
2711;BME280;20721;47.402;8.550;2023-06-26T00:02:34;96175;;;23.58;43.43
2711;BME280;20721;47.402;8.550;2023-06-26T00:03:34;96174;;;23.63;43.34
2711;BME280;20721;47.402;8.550;2023-06-26T00:04:35;96177;;;23.65;43.47
2711;BME280;20721;47.402;8.550;2023-06-26T00:05:34;96177;;;23.67;43.48
2711;BME280;20721;47.402;8.550;2023-06-26T00:06:36;96181;;;23.62;43.75
2711;BME280;20721;47.402;8.550;2023-06-26T00:07:34;96182;;;23.61;43.95
2711;BME280;20721;47.402;8.550;2023-06-26T00:08:34;96179;;;23.55;44.26
2711;BME280;20721;47.402;8.550;2023-06-26T00:09:34;96181;;;23.47;44.32
2711;BME280;20721;47.402;8.550;2023-06-26T00:10:34;96182;;;23.44;44.59
2711;BME280;20721;47.402;8.550;2023-06-26T00:11:34;96181;;;23.45;44.48
2711;BME280;20721;47.402;8.550;2023-06-26T00:12:34;96175;;;23.48;44.34
2711;BME280;20721;47.402;8.550;2023-06-26T00:13:35;96180;;;23.51;44.53
2711;BME280;20721;47.402;8.550;2023-06-26T00:14:34;96179;;;23.53;44.62
2711;BME280;20721;47.402;8.550;2023-06-26T00:15:34;96178;;;23.57;44.71
2711;BME280;20721;47.402;8.550;2023-06-26T00:16:35;96179;;;23.59;44.60
2711;BME280;20721;47.402;8.550;2023-06-26T00:17:37;96181;;;23.60;44.51
2711;BME280;20721;47.402;8.550;2023-06-26T00:18:36;96182;;;23.61;44.41
2711;BME280;20721;47.402;8.550;2023-06-26T00:19:34;96183;;;23.62;44.57
2711;BME280;20721;47.402;8.550;2023-06-26T00:20:34;96180;;;23.61;44.50
2711;BME280;20721;47.402;8.550;2023-06-26T00:21:34;96186;;;23.60;44.52
2711;BME280;20721;47.402;8.550;2023-06-26T00:23:36;96187;;;23.61;44.62
2711;BME280;20721;47.402;8.550;2023-06-26T00:26:34;96188;;;23.62;44.74
2711;BME280;20721;47.402;8.550;2023-06-26T00:27:34;96192;;;23.63;44.89
2711;BME280;20721;47.402;8.550;2023-06-26T00:28:34;96194;;;23.64;44.96
2711;BME280;20721;47.402;8.550;2023-06-26T00:29:35;96192;;;23.63;44.87
2711;BME280;20721;47.402;8.550;2023-06-26T00:30:34;96191;;;23.62;44.93
2711;BME280;20721;47.402;8.550;2023-06-26T00:31:36;96193;;;23.55;44.94
2711;BME280;20721;47.402;8.550;2023-06-26T00:32:34;96198;;;23.51;45.06
2711;BME280;20721;47.402;8.550;2023-06-26T00:33:34;96194;;;23.46;45.13
2711;BME280;20721;47.402;8.550;2023-06-26T00:34:34;96193;;;23.45;45.22
2711;BME280;20721;47.402;8.550;2023-06-26T00:35:35;96197;;;23.42;45.36
2711;BME280;20721;47.402;8.550;2023-06-26T00:36:35;96195;;;23.34;45.43
2711;BME280;20721;47.402;8.550;2023-06-26T00:37:35;96192;;;23.31;45.42
2711;BME280;20721;47.402;8.550;2023-06-26T00:39:35;96194;;;23.33;45.66
2711;BME280;20721;47.402;8.550;2023-06-26T00:40:34;96194;;;23.35;45.64
2711;BME280;20721;47.402;8.550;2023-06-26T00:42:34;96195;;;23.34;45.71
2711;BME280;20721;47.402;8.550;2023-06-26T00:43:34;96199;;;23.31;45.79
2711;BME280;20721;47.402;8.550;2023-06-26T00:44:34;96200;;;23.26;45.92
2711;BME280;20721;47.402;8.550;2023-06-26T00:45:44;96200;;;23.22;46.03
2711;BME280;20721;47.402;8.550;2023-06-26T00:47:34;96201;;;23.25;46.22
2711;BME280;20721;47.402;8.550;2023-06-26T00:48:34;96198;;;23.27;46.17
2711;BME280;20721;47.402;8.550;2023-06-26T00:49:34;96197;;;23.30;46.13
2711;BME280;20721;47.402;8.550;2023-06-26T00:50:35;96191;;;23.31;46.28
2711;BME280;20721;47.402;8.550;2023-06-26T00:51:34;96195;;;23.33;46.29
2711;BME280;20721;47.402;8.550;2023-06-26T00:52:34;96196;;;23.34;46.33
2711;BME280;20721;47.402;8.550;2023-06-26T00:54:34;96196;;;23.31;46.22
2711;BME280;20721;47.402;8.550;2023-06-26T00:55:37;96200;;;23.30;46.26
2711;BME280;20721;47.402;8.550;2023-06-26T00:56:34;96197;;;23.28;46.42
2711;BME280;20721;47.402;8.550;2023-06-26T00:57:34;96197;;;23.25;46.55
2711;BME280;20721;47.402;8.550;2023-06-26T00:58:34;96196;;;23.21;46.59
2711;BME280;20721;47.402;8.550;2023-06-26T00:59:34;96197;;;23.14;46.73
2711;BME280;20721;47.402;8.550;2023-06-26T01:00:34;96197;;;22.97;47.29
2711;BME280;20721;47.402;8.550;2023-06-26T01:01:34;96196;;;22.88;47.50
2711;BME280;20721;47.402;8.550;2023-06-26T01:02:35;96196;;;22.84;47.58
2711;BME280;20721;47.402;8.550;2023-06-26T01:03:37;96200;;;22.80;47.80
2711;BME280;20721;47.402;8.550;2023-06-26T01:04:35;96202;;;22.78;47.77
2711;BME280;20721;47.402;8.550;2023-06-26T01:05:35;96205;;;22.80;47.65
2711;BME280;20721;47.402;8.550;2023-06-26T01:06:35;96206;;;22.83;47.82
2711;BME280;20721;47.402;8.550;2023-06-26T01:07:36;96204;;;22.85;47.77
2711;BME280;20721;47.402;8.550;2023-06-26T01:08:34;96202;;;22.86;47.80
2711;BME280;20721;47.402;8.550;2023-06-26T01:11:34;96205;;;22.82;48.05
2711;BME280;20721;47.402;8.550;2023-06-26T01:12:34;96207;;;22.74;48.30
2711;BME280;20721;47.402;8.550;2023-06-26T01:13:34;96207;;;22.70;48.53
2711;BME280;20721;47.402;8.550;2023-06-26T01:14:36;96206;;;22.69;48.63
2711;BME280;20721;47.402;8.550;2023-06-26T01:15:34;96204;;;22.70;48.72
2711;BME280;20721;47.402;8.550;2023-06-26T01:16:35;96202;;;22.73;48.64
2711;BME280;20721;47.402;8.550;2023-06-26T01:17:36;96200;;;22.75;48.62
2711;BME280;20721;47.402;8.550;2023-06-26T01:18:34;96206;;;22.78;48.57
2711;BME280;20721;47.402;8.550;2023-06-26T01:20:36;96205;;;22.82;48.51
2711;BME280;20721;47.402;8.550;2023-06-26T01:21:35;96203;;;22.85;48.47
2711;BME280;20721;47.402;8.550;2023-06-26T01:24:36;96199;;;22.92;48.13
2711;BME280;20721;47.402;8.550;2023-06-26T01:26:35;96202;;;22.98;47.87
2711;BME280;20721;47.402;8.550;2023-06-26T01:27:35;96201;;;22.99;47.85
2711;BME280;20721;47.402;8.550;2023-06-26T01:28:35;96200;;;23.01;47.99
2711;BME280;20721;47.402;8.550;2023-06-26T01:29:34;96199;;;23.02;47.66
2711;BME280;20721;47.402;8.550;2023-06-26T01:31:35;96202;;;23.01;47.77
2711;BME280;20721;47.402;8.550;2023-06-26T01:32:37;96200;;;22.97;47.76
2711;BME280;20721;47.402;8.550;2023-06-26T01:34:35;96202;;;22.95;47.93
2711;BME280;20721;47.402;8.550;2023-06-26T01:35:35;96201;;;22.93;47.80
2711;BME280;20721;47.402;8.550;2023-06-26T01:36:35;96200;;;22.92;47.83
2711;BME280;20721;47.402;8.550;2023-06-26T01:37:35;96201;;;22.94;47.94
2711;BME280;20721;47.402;8.550;2023-06-26T01:38:35;96197;;;22.90;48.16
2711;BME280;20721;47.402;8.550;2023-06-26T01:39:34;96198;;;22.80;47.85
2711;BME280;20721;47.402;8.550;2023-06-26T01:40:35;96197;;;22.74;48.11
2711;BME280;20721;47.402;8.550;2023-06-26T01:45:35;96196;;;22.75;48.76
2711;BME280;20721;47.402;8.550;2023-06-26T01:46:40;96199;;;22.74;48.75
2711;BME280;20721;47.402;8.550;2023-06-26T01:47:35;96199;;;22.73;48.92
2711;BME280;20721;47.402;8.550;2023-06-26T01:48:40;96202;;;22.71;48.82
2711;BME280;20721;47.402;8.550;2023-06-26T01:51:35;96199;;;22.69;48.87
2711;BME280;20721;47.402;8.550;2023-06-26T01:52:37;96204;;;22.68;48.67
2711;BME280;20721;47.402;8.550;2023-06-26T01:53:36;96202;;;22.64;48.68
2711;BME280;20721;47.402;8.550;2023-06-26T01:55:39;96201;;;22.62;48.49
2711;BME280;20721;47.402;8.550;2023-06-26T01:56:35;96199;;;22.60;48.20
2711;BME280;20721;47.402;8.550;2023-06-26T01:57:35;96200;;;22.59;48.60
2711;BME280;20721;47.402;8.550;2023-06-26T01:58:35;96204;;;22.60;48.63
2711;BME280;20721;47.402;8.550;2023-06-26T01:59:35;96203;;;22.61;48.60
2711;BME280;20721;47.402;8.550;2023-06-26T02:01:35;96202;;;22.59;48.39
2711;BME280;20721;47.402;8.550;2023-06-26T02:05:35;96210;;;22.57;48.30
2711;BME280;20721;47.402;8.550;2023-06-26T02:08:35;96209;;;22.59;48.13
2711;BME280;20721;47.402;8.550;2023-06-26T02:09:38;96208;;;22.58;48.40
2711;BME280;20721;47.402;8.550;2023-06-26T02:10:35;96212;;;22.55;48.85
2711;BME280;20721;47.402;8.550;2023-06-26T02:11:35;96209;;;22.52;48.76
2711;BME280;20721;47.402;8.550;2023-06-26T02:12:36;96206;;;22.46;49.02
2711;BME280;20721;47.402;8.550;2023-06-26T02:13:35;96206;;;22.39;49.43
2711;BME280;20721;47.402;8.550;2023-06-26T02:14:35;96206;;;22.32;49.80
2711;BME280;20721;47.402;8.550;2023-06-26T02:15:35;96205;;;22.27;49.95
2711;BME280;20721;47.402;8.550;2023-06-26T02:16:35;96206;;;22.22;50.07
2711;BME280;20721;47.402;8.550;2023-06-26T02:17:35;96206;;;22.18;50.35
2711;BME280;20721;47.402;8.550;2023-06-26T02:18:35;96208;;;22.13;50.21
2711;BME280;20721;47.402;8.550;2023-06-26T02:19:35;96204;;;22.06;50.29
2711;BME280;20721;47.402;8.550;2023-06-26T02:20:35;96206;;;21.95;50.51
2711;BME280;20721;47.402;8.550;2023-06-26T02:21:35;96211;;;21.86;50.52
2711;BME280;20721;47.402;8.550;2023-06-26T02:22:35;96207;;;21.79;50.63
2711;BME280;20721;47.402;8.550;2023-06-26T02:23:35;96206;;;21.77;50.69
2711;BME280;20721;47.402;8.550;2023-06-26T02:24:35;96208;;;21.76;51.07
2711;BME280;20721;47.402;8.550;2023-06-26T02:25:35;96211;;;21.79;50.95
2711;BME280;20721;47.402;8.550;2023-06-26T02:26:35;96208;;;21.84;50.78
2711;BME280;20721;47.402;8.550;2023-06-26T02:27:35;96210;;;21.88;50.65
2711;BME280;20721;47.402;8.550;2023-06-26T02:28:35;96209;;;21.94;50.61
2711;BME280;20721;47.402;8.550;2023-06-26T02:29:35;96209;;;21.98;50.49
2711;BME280;20721;47.402;8.550;2023-06-26T02:30:35;96211;;;22.02;50.57
2711;BME280;20721;47.402;8.550;2023-06-26T02:31:35;96209;;;22.04;50.48
2711;BME280;20721;47.402;8.550;2023-06-26T02:32:35;96207;;;22.00;50.70
2711;BME280;20721;47.402;8.550;2023-06-26T02:33:35;96208;;;21.99;50.69
2711;BME280;20721;47.402;8.550;2023-06-26T02:34:35;96206;;;21.95;50.84
2711;BME280;20721;47.402;8.550;2023-06-26T02:35:35;96207;;;21.93;50.68
2711;BME280;20721;47.402;8.550;2023-06-26T02:37:35;96205;;;21.94;50.89
2711;BME280;20721;47.402;8.550;2023-06-26T02:38:35;96207;;;21.96;50.94
2711;BME280;20721;47.402;8.550;2023-06-26T02:39:35;96205;;;21.95;50.93
2711;BME280;20721;47.402;8.550;2023-06-26T02:40:35;96206;;;21.93;50.98
2711;BME280;20721;47.402;8.550;2023-06-26T02:41:35;96210;;;21.92;51.08
2711;BME280;20721;47.402;8.550;2023-06-26T02:42:35;96207;;;21.91;51.00
2711;BME280;20721;47.402;8.550;2023-06-26T02:43:35;96202;;;21.81;51.12
2711;BME280;20721;47.402;8.550;2023-06-26T02:44:35;96204;;;21.74;51.09
2711;BME280;20721;47.402;8.550;2023-06-26T02:45:35;96204;;;21.69;51.30
2711;BME280;20721;47.402;8.550;2023-06-26T02:46:38;96205;;;21.67;51.56
2711;BME280;20721;47.402;8.550;2023-06-26T02:47:36;96204;;;21.60;51.91
2711;BME280;20721;47.402;8.550;2023-06-26T02:48:35;96204;;;21.59;51.94
2711;BME280;20721;47.402;8.550;2023-06-26T02:49:35;96205;;;21.60;51.92
2711;BME280;20721;47.402;8.550;2023-06-26T02:50:35;96209;;;21.63;51.83
2711;BME280;20721;47.402;8.550;2023-06-26T02:51:35;96208;;;21.64;51.89
2711;BME280;20721;47.402;8.550;2023-06-26T02:53:35;96214;;;21.66;52.14
2711;BME280;20721;47.402;8.550;2023-06-26T02:54:35;96216;;;21.70;51.98
2711;BME280;20721;47.402;8.550;2023-06-26T02:55:35;96213;;;21.73;51.82
2711;BME280;20721;47.402;8.550;2023-06-26T02:56:42;96215;;;21.75;51.75
2711;BME280;20721;47.402;8.550;2023-06-26T02:57:35;96214;;;21.76;51.72
2711;BME280;20721;47.402;8.550;2023-06-26T02:58:35;96219;;;21.79;51.75
2711;BME280;20721;47.402;8.550;2023-06-26T02:59:35;96217;;;21.81;51.58
2711;BME280;20721;47.402;8.550;2023-06-26T03:00:35;96219;;;21.83;51.43
2711;BME280;20721;47.402;8.550;2023-06-26T03:03:40;96221;;;21.85;51.58
2711;BME280;20721;47.402;8.550;2023-06-26T03:04:36;96220;;;21.86;51.57
2711;BME280;20721;47.402;8.550;2023-06-26T03:05:35;96221;;;21.87;51.56
2711;BME280;20721;47.402;8.550;2023-06-26T03:06:35;96221;;;21.88;51.46
2711;BME280;20721;47.402;8.550;2023-06-26T03:07:35;96224;;;21.90;51.45
2711;BME280;20721;47.402;8.550;2023-06-26T03:10:35;96225;;;21.89;51.49
2711;BME280;20721;47.402;8.550;2023-06-26T03:12:35;96226;;;21.88;51.63
2711;BME280;20721;47.402;8.550;2023-06-26T03:14:35;96226;;;21.89;51.65
2711;BME280;20721;47.402;8.550;2023-06-26T03:15:35;96230;;;21.87;51.69
2711;BME280;20721;47.402;8.550;2023-06-26T03:16:35;96229;;;21.85;51.77
2711;BME280;20721;47.402;8.550;2023-06-26T03:17:35;96232;;;21.82;51.85
2711;BME280;20721;47.402;8.550;2023-06-26T03:18:35;96230;;;21.81;51.84
2711;BME280;20721;47.402;8.550;2023-06-26T03:19:35;96225;;;21.80;51.96
2711;BME280;20721;47.402;8.550;2023-06-26T03:20:35;96227;;;21.81;51.84
2711;BME280;20721;47.402;8.550;2023-06-26T03:21:35;96226;;;21.82;52.10
2711;BME280;20721;47.402;8.550;2023-06-26T03:22:35;96225;;;21.84;51.99
2711;BME280;20721;47.402;8.550;2023-06-26T03:23:39;96221;;;21.86;51.89
2711;BME280;20721;47.402;8.550;2023-06-26T03:24:35;96222;;;21.88;51.39
2711;BME280;20721;47.402;8.550;2023-06-26T03:25:35;96221;;;21.90;51.21
2711;BME280;20721;47.402;8.550;2023-06-26T03:26:35;96225;;;21.93;51.52
2711;BME280;20721;47.402;8.550;2023-06-26T03:27:35;96226;;;21.96;51.70
2711;BME280;20721;47.402;8.550;2023-06-26T03:28:35;96225;;;21.94;51.61
2711;BME280;20721;47.402;8.550;2023-06-26T03:29:35;96227;;;21.92;51.94
2711;BME280;20721;47.402;8.550;2023-06-26T03:30:35;96227;;;21.91;51.97
2711;BME280;20721;47.402;8.550;2023-06-26T03:31:35;96229;;;21.87;51.94
2711;BME280;20721;47.402;8.550;2023-06-26T03:32:35;96229;;;21.81;52.05
2711;BME280;20721;47.402;8.550;2023-06-26T03:33:35;96228;;;21.73;52.25
2711;BME280;20721;47.402;8.550;2023-06-26T03:34:35;96228;;;21.66;52.49
2711;BME280;20721;47.402;8.550;2023-06-26T03:35:35;96229;;;21.63;52.27
2711;BME280;20721;47.402;8.550;2023-06-26T03:36:35;96228;;;21.61;52.32
2711;BME280;20721;47.402;8.550;2023-06-26T03:37:35;96230;;;21.60;52.29
2711;BME280;20721;47.402;8.550;2023-06-26T03:40:35;96232;;;21.54;52.29
2711;BME280;20721;47.402;8.550;2023-06-26T03:41:35;96232;;;21.46;52.91
2711;BME280;20721;47.402;8.550;2023-06-26T03:42:35;96230;;;21.37;53.07
2711;BME280;20721;47.402;8.550;2023-06-26T03:43:35;96227;;;21.34;53.34
2711;BME280;20721;47.402;8.550;2023-06-26T03:46:35;96231;;;21.36;53.55
2711;BME280;20721;47.402;8.550;2023-06-26T03:47:35;96227;;;21.35;53.70
2711;BME280;20721;47.402;8.550;2023-06-26T03:48:35;96232;;;21.30;53.89
2711;BME280;20721;47.402;8.550;2023-06-26T03:49:35;96231;;;21.31;53.98
2711;BME280;20721;47.402;8.550;2023-06-26T03:50:35;96235;;;21.34;54.04
2711;BME280;20721;47.402;8.550;2023-06-26T03:51:35;96234;;;21.38;54.04
2711;BME280;20721;47.402;8.550;2023-06-26T03:52:35;96232;;;21.40;54.11
2711;BME280;20721;47.402;8.550;2023-06-26T03:53:35;96233;;;21.43;54.01
2711;BME280;20721;47.402;8.550;2023-06-26T03:54:35;96234;;;21.47;53.90
2711;BME280;20721;47.402;8.550;2023-06-26T03:55:35;96234;;;21.50;53.83
2711;BME280;20721;47.402;8.550;2023-06-26T03:56:35;96234;;;21.52;53.78
2711;BME280;20721;47.402;8.550;2023-06-26T03:57:35;96235;;;21.54;53.67
2711;BME280;20721;47.402;8.550;2023-06-26T03:58:35;96238;;;21.57;53.88
2711;BME280;20721;47.402;8.550;2023-06-26T04:00:40;96239;;;21.59;53.59
2711;BME280;20721;47.402;8.550;2023-06-26T04:02:35;96243;;;21.60;53.49
2711;BME280;20721;47.402;8.550;2023-06-26T04:03:35;96240;;;21.61;53.41
2711;BME280;20721;47.402;8.550;2023-06-26T04:04:35;96243;;;21.64;53.43
2711;BME280;20721;47.402;8.550;2023-06-26T04:05:35;96241;;;21.67;53.27
2711;BME280;20721;47.402;8.550;2023-06-26T04:07:36;96246;;;21.65;53.25
2711;BME280;20721;47.402;8.550;2023-06-26T04:08:35;96247;;;21.66;53.20
2711;BME280;20721;47.402;8.550;2023-06-26T04:10:36;96247;;;21.69;53.27
2711;BME280;20721;47.402;8.550;2023-06-26T04:11:35;96248;;;21.71;53.25
2711;BME280;20721;47.402;8.550;2023-06-26T04:13:35;96249;;;21.70;53.17
2711;BME280;20721;47.402;8.550;2023-06-26T04:14:35;96251;;;21.67;53.05
2711;BME280;20721;47.402;8.550;2023-06-26T04:15:35;96248;;;21.62;53.22
2711;BME280;20721;47.402;8.550;2023-06-26T04:17:35;96249;;;21.63;53.41
2711;BME280;20721;47.402;8.550;2023-06-26T04:18:35;96249;;;21.64;53.39
2711;BME280;20721;47.402;8.550;2023-06-26T04:19:37;96249;;;21.66;53.36
2711;BME280;20721;47.402;8.550;2023-06-26T04:21:35;96252;;;21.68;53.16
2711;BME280;20721;47.402;8.550;2023-06-26T04:22:35;96254;;;21.70;53.15
2711;BME280;20721;47.402;8.550;2023-06-26T04:23:35;96251;;;21.73;53.08
2711;BME280;20721;47.402;8.550;2023-06-26T04:24:35;96250;;;21.76;52.93
2711;BME280;20721;47.402;8.550;2023-06-26T04:25:37;96250;;;21.80;52.79
2711;BME280;20721;47.402;8.550;2023-06-26T04:26:35;96251;;;21.83;52.89
2711;BME280;20721;47.402;8.550;2023-06-26T04:27:38;96253;;;21.79;52.82
2711;BME280;20721;47.402;8.550;2023-06-26T04:28:35;96250;;;21.77;52.95
2711;BME280;20721;47.402;8.550;2023-06-26T04:29:35;96255;;;21.79;52.95
2711;BME280;20721;47.402;8.550;2023-06-26T04:30:35;96253;;;21.81;52.83
2711;BME280;20721;47.402;8.550;2023-06-26T04:31:35;96248;;;21.85;52.90
2711;BME280;20721;47.402;8.550;2023-06-26T04:32:35;96248;;;21.87;52.71
2711;BME280;20721;47.402;8.550;2023-06-26T04:33:36;96254;;;21.88;52.75
2711;BME280;20721;47.402;8.550;2023-06-26T04:34:36;96252;;;21.91;52.76
2711;BME280;20721;47.402;8.550;2023-06-26T04:35:36;96251;;;21.94;52.66
2711;BME280;20721;47.402;8.550;2023-06-26T04:36:38;96251;;;21.96;52.71
2711;BME280;20721;47.402;8.550;2023-06-26T04:37:40;96252;;;22.00;52.79
2711;BME280;20721;47.402;8.550;2023-06-26T04:38:35;96254;;;22.03;52.83
2711;BME280;20721;47.402;8.550;2023-06-26T04:39:37;96252;;;22.07;52.62
2711;BME280;20721;47.402;8.550;2023-06-26T04:40:35;96255;;;22.11;52.37
2711;BME280;20721;47.402;8.550;2023-06-26T04:41:35;96255;;;22.15;52.32
2711;BME280;20721;47.402;8.550;2023-06-26T04:42:35;96255;;;22.16;52.25
2711;BME280;20721;47.402;8.550;2023-06-26T04:43:35;96256;;;22.18;52.36
2711;BME280;20721;47.402;8.550;2023-06-26T04:44:37;96252;;;22.19;52.11
2711;BME280;20721;47.402;8.550;2023-06-26T04:45:35;96254;;;22.20;52.05
2711;BME280;20721;47.402;8.550;2023-06-26T04:46:36;96257;;;22.23;52.06
2711;BME280;20721;47.402;8.550;2023-06-26T04:47:35;96255;;;22.26;51.96
2711;BME280;20721;47.402;8.550;2023-06-26T04:48:35;96254;;;22.30;51.78
2711;BME280;20721;47.402;8.550;2023-06-26T04:49:37;96257;;;22.32;51.98
2711;BME280;20721;47.402;8.550;2023-06-26T04:50:35;96249;;;22.31;52.05
2711;BME280;20721;47.402;8.550;2023-06-26T04:51:40;96254;;;22.32;52.18
2711;BME280;20721;47.402;8.550;2023-06-26T04:52:35;96252;;;22.35;52.13
2711;BME280;20721;47.402;8.550;2023-06-26T04:53:35;96251;;;22.39;51.83
2711;BME280;20721;47.402;8.550;2023-06-26T04:54:35;96250;;;22.45;51.84
2711;BME280;20721;47.402;8.550;2023-06-26T04:55:38;96251;;;22.50;51.66
2711;BME280;20721;47.402;8.550;2023-06-26T04:56:35;96251;;;22.55;51.50
2711;BME280;20721;47.402;8.550;2023-06-26T04:57:35;96249;;;22.60;51.60
2711;BME280;20721;47.402;8.550;2023-06-26T04:58:35;96251;;;22.65;51.44
2711;BME280;20721;47.402;8.550;2023-06-26T04:59:35;96251;;;22.70;51.56
2711;BME280;20721;47.402;8.550;2023-06-26T05:00:35;96253;;;22.75;51.31
2711;BME280;20721;47.402;8.550;2023-06-26T05:01:39;96252;;;22.80;51.11
2711;BME280;20721;47.402;8.550;2023-06-26T05:02:35;96251;;;22.86;51.17
2711;BME280;20721;47.402;8.550;2023-06-26T05:03:36;96249;;;22.91;51.15
2711;BME280;20721;47.402;8.550;2023-06-26T05:04:35;96249;;;22.96;51.02
2711;BME280;20721;47.402;8.550;2023-06-26T05:05:35;96250;;;22.98;50.81
2711;BME280;20721;47.402;8.550;2023-06-26T05:06:35;96253;;;23.03;50.87
2711;BME280;20721;47.402;8.550;2023-06-26T05:07:35;96252;;;23.08;50.92
2711;BME280;20721;47.402;8.550;2023-06-26T05:08:35;96249;;;23.12;50.63
2711;BME280;20721;47.402;8.550;2023-06-26T05:09:35;96253;;;23.17;50.63
2711;BME280;20721;47.402;8.550;2023-06-26T05:10:35;96249;;;23.21;50.46
2711;BME280;20721;47.402;8.550;2023-06-26T05:11:35;96252;;;23.25;50.44
2711;BME280;20721;47.402;8.550;2023-06-26T05:12:35;96255;;;23.30;50.12
2711;BME280;20721;47.402;8.550;2023-06-26T05:13:35;96254;;;23.35;50.05
2711;BME280;20721;47.402;8.550;2023-06-26T05:14:40;96254;;;23.41;50.28
2711;BME280;20721;47.402;8.550;2023-06-26T05:15:35;96252;;;23.45;50.39
2711;BME280;20721;47.402;8.550;2023-06-26T05:16:35;96255;;;23.50;50.12
2711;BME280;20721;47.402;8.550;2023-06-26T05:17:35;96256;;;23.55;49.89
2711;BME280;20721;47.402;8.550;2023-06-26T05:18:35;96253;;;23.57;50.01
2711;BME280;20721;47.402;8.550;2023-06-26T05:19:35;96257;;;23.62;49.80
2711;BME280;20721;47.402;8.550;2023-06-26T05:20:35;96258;;;23.67;49.84
2711;BME280;20721;47.402;8.550;2023-06-26T05:21:35;96255;;;23.71;49.82
2711;BME280;20721;47.402;8.550;2023-06-26T05:22:38;96259;;;23.75;49.78
2711;BME280;20721;47.402;8.550;2023-06-26T05:23:35;96259;;;23.80;49.65
2711;BME280;20721;47.402;8.550;2023-06-26T05:24:35;96257;;;23.85;49.58
2711;BME280;20721;47.402;8.550;2023-06-26T05:25:35;96259;;;23.89;49.58
2711;BME280;20721;47.402;8.550;2023-06-26T05:26:35;96264;;;23.94;49.50
2711;BME280;20721;47.402;8.550;2023-06-26T05:27:35;96261;;;23.99;49.42
2711;BME280;20721;47.402;8.550;2023-06-26T05:28:36;96261;;;24.02;49.35
2711;BME280;20721;47.402;8.550;2023-06-26T05:29:39;96261;;;24.05;49.08
2711;BME280;20721;47.402;8.550;2023-06-26T05:30:35;96261;;;24.03;49.35
2711;BME280;20721;47.402;8.550;2023-06-26T05:32:37;96261;;;24.06;49.22
2711;BME280;20721;47.402;8.550;2023-06-26T05:33:36;96261;;;24.09;49.02
2711;BME280;20721;47.402;8.550;2023-06-26T05:34:35;96258;;;24.13;49.02
2711;BME280;20721;47.402;8.550;2023-06-26T05:35:35;96257;;;24.18;48.75
2711;BME280;20721;47.402;8.550;2023-06-26T05:36:35;96257;;;24.23;49.04
2711;BME280;20721;47.402;8.550;2023-06-26T05:37:35;96252;;;24.28;48.90
2711;BME280;20721;47.402;8.550;2023-06-26T05:38:35;96254;;;24.34;48.64
2711;BME280;20721;47.402;8.550;2023-06-26T05:39:35;96256;;;24.39;48.83
2711;BME280;20721;47.402;8.550;2023-06-26T05:40:35;96255;;;24.42;48.67
2711;BME280;20721;47.402;8.550;2023-06-26T05:41:35;96260;;;24.48;48.91
2711;BME280;20721;47.402;8.550;2023-06-26T05:42:35;96258;;;24.53;48.59
2711;BME280;20721;47.402;8.550;2023-06-26T05:43:35;96258;;;24.57;48.90
2711;BME280;20721;47.402;8.550;2023-06-26T05:44:35;96260;;;24.60;48.98
2711;BME280;20721;47.402;8.550;2023-06-26T05:45:35;96257;;;24.65;48.77
2711;BME280;20721;47.402;8.550;2023-06-26T05:46:35;96254;;;24.70;48.85
2711;BME280;20721;47.402;8.550;2023-06-26T05:47:36;96259;;;24.79;48.80
2711;BME280;20721;47.402;8.550;2023-06-26T05:48:36;96256;;;24.86;49.00
2711;BME280;20721;47.402;8.550;2023-06-26T05:49:35;96260;;;24.90;48.97
2711;BME280;20721;47.402;8.550;2023-06-26T05:50:36;96260;;;24.95;49.28
2711;BME280;20721;47.402;8.550;2023-06-26T05:51:40;96260;;;25.02;49.24
2711;BME280;20721;47.402;8.550;2023-06-26T05:52:35;96260;;;25.07;49.04
2711;BME280;20721;47.402;8.550;2023-06-26T05:53:35;96258;;;25.16;48.96
2711;BME280;20721;47.402;8.550;2023-06-26T05:54:35;96261;;;25.18;48.47
2711;BME280;20721;47.402;8.550;2023-06-26T05:55:36;96261;;;25.22;48.60
2711;BME280;20721;47.402;8.550;2023-06-26T05:56:35;96261;;;25.27;48.68
2711;BME280;20721;47.402;8.550;2023-06-26T05:57:35;96254;;;25.35;48.75
2711;BME280;20721;47.402;8.550;2023-06-26T05:58:35;96256;;;25.45;48.20
2711;BME280;20721;47.402;8.550;2023-06-26T05:59:36;96257;;;25.50;48.23
2711;BME280;20721;47.402;8.550;2023-06-26T06:00:35;96256;;;25.55;48.15
2711;BME280;20721;47.402;8.550;2023-06-26T06:01:36;96254;;;25.62;47.93
2711;BME280;20721;47.402;8.550;2023-06-26T06:02:36;96256;;;25.68;47.33
2711;BME280;20721;47.402;8.550;2023-06-26T06:03:35;96249;;;25.60;47.46
2711;BME280;20721;47.402;8.550;2023-06-26T06:04:37;96254;;;25.64;47.52
2711;BME280;20721;47.402;8.550;2023-06-26T06:05:35;96253;;;25.72;47.28
2711;BME280;20721;47.402;8.550;2023-06-26T06:06:35;96253;;;25.78;47.50
2711;BME280;20721;47.402;8.550;2023-06-26T06:07:36;96257;;;25.88;47.46
2711;BME280;20721;47.402;8.550;2023-06-26T06:08:35;96252;;;25.97;47.50
2711;BME280;20721;47.402;8.550;2023-06-26T06:09:35;96249;;;26.06;47.61
2711;BME280;20721;47.402;8.550;2023-06-26T06:10:35;96251;;;26.12;47.03
2711;BME280;20721;47.402;8.550;2023-06-26T06:11:36;96248;;;26.15;47.20
2711;BME280;20721;47.402;8.550;2023-06-26T06:12:35;96250;;;26.22;47.24
2711;BME280;20721;47.402;8.550;2023-06-26T06:13:35;96255;;;26.30;47.07
2711;BME280;20721;47.402;8.550;2023-06-26T06:14:35;96252;;;26.35;46.85
2711;BME280;20721;47.402;8.550;2023-06-26T06:15:35;96250;;;26.37;46.80
2711;BME280;20721;47.402;8.550;2023-06-26T06:16:35;96252;;;26.40;47.19
2711;BME280;20721;47.402;8.550;2023-06-26T06:17:35;96252;;;26.45;46.80
2711;BME280;20721;47.402;8.550;2023-06-26T06:18:35;96252;;;26.46;46.83
2711;BME280;20721;47.402;8.550;2023-06-26T06:19:35;96250;;;26.45;46.78
2711;BME280;20721;47.402;8.550;2023-06-26T06:20:36;96253;;;26.50;47.09
2711;BME280;20721;47.402;8.550;2023-06-26T06:21:35;96251;;;26.57;46.53
2711;BME280;20721;47.402;8.550;2023-06-26T06:22:35;96250;;;26.58;46.18
2711;BME280;20721;47.402;8.550;2023-06-26T06:23:35;96249;;;26.66;46.48